Flood From: 21-02-2018 18:00 Until: 22-02-2018 16:00 warning for: Flood Level: Yellow info button

Although rather usual in this region, locally or potentially dangerous phenomena are expected. (such as local winds, summer thunderstorms, rising streams or high waves) Be aware and pay attention to the latest weather updates, especially if you carry out activities exposed to weather or close to a stream or shoreline. 


Meteo18 Weather Cam more information Meteo18 Weather Cam


Thunder radar more information blitzortung!


Rain radar more information rain snow radar


Visit our other weather sites:

Template documentation
and downloads

And another site



Weather Underground History page Text

Daily Summary for July 19, 2016 Units:  Metric    English   Both
« Previous Day
Next Day »
Daily Weekly Monthly Yearly Custom
  High: Low: Average:
Temperature: -17.8 °C -8.8 °C -2.6 °C
Dew Point: -17.8 °C -10.7 °C -9 °C
Humidity: Humidity % 25 % 55 %
Wind Speed: 0 km/h 0 km/h 1.6 km/h
Wind Gust: 0 km/h - -
Wind:- - WNW
Pressure: 0 hPa 34327.3 hPa -
Precipitation: 0 mm    
Historical Graphs
 
 
Tabular Data for July 19, 2016
Time Temperature Dew Point Pressure Wind Wind Speed Wind Gust Humidity Rainfall Rate (Hourly)
-17.8 °C -17.8 °C 0 hPa Calm     Humidity % 0 mm
00:02 -5.6 °C -8.3 °C 34496.6 hPa Calm     74 % 0 mm
00:12 -5.9 °C -8.4 °C 34496.6 hPa Calm     76 % 0 mm
00:17 -6.1 °C -8.4 °C 34496.6 hPa Calm     77 % 0 mm
00:22 -6.3 °C -8.5 °C 34496.6 hPa Calm     78 % 0 mm
00:32 -6.6 °C -8.6 °C 34496.6 hPa Calm     80 % 0 mm
00:42 -6.7 °C -8.6 °C 34496.6 hPa Calm     81 % 0 mm
00:47 -6.7 °C -8.6 °C 34486.4 hPa Calm     81 % 0 mm
00:57 -6.7 °C -8.6 °C 34486.4 hPa Calm     81 % 0 mm
01:02 -6.7 °C -8.6 °C 34486.4 hPa Calm     81 % 0 mm
01:12 -6.9 °C -8.7 °C 34486.4 hPa Calm     82 % 0 mm
01:17 -6.9 °C -8.6 °C 34486.4 hPa Calm     83 % 0 mm
01:22 -6.8 °C -8.5 °C 34486.4 hPa Calm     83 % 0 mm
01:32 -7 °C -8.7 °C 34486.4 hPa Calm     83 % 0 mm
01:37 -7.1 °C -8.7 °C 34486.4 hPa Calm     83 % 0 mm
01:42 -7.1 °C -8.7 °C 34486.4 hPa Calm     84 % 0 mm
01:47 -7.1 °C -8.7 °C 34486.4 hPa Calm     84 % 0 mm
01:52 -7.1 °C -8.6 °C 34486.4 hPa Calm     84 % 0 mm
01:57 -7.1 °C -8.7 °C 34486.4 hPa Calm     84 % 0 mm
02:02 -7.1 °C -8.6 °C 34486.4 hPa Calm     84 % 0 mm
02:12 -7.2 °C -8.7 °C 34476.3 hPa Calm     84 % 0 mm
02:17 -7.2 °C -8.8 °C 34486.4 hPa Calm     84 % 0 mm
02:22 -7.3 °C -8.9 °C 34486.4 hPa Calm     84 % 0 mm
02:32 -7.6 °C -9 °C 34476.3 hPa Calm     85 % 0 mm
02:37 -7.6 °C -8.9 °C 34476.3 hPa Calm     86 % 0 mm
02:42 -7.7 °C -9 °C 34476.3 hPa Calm     86 % 0 mm
02:52 -7.8 °C -8.9 °C 34476.3 hPa Calm     88 % 0 mm
02:57 -7.9 °C -9 °C 34476.3 hPa Calm     88 % 0 mm
03:12 -7.9 °C -8.9 °C 34476.3 hPa Calm     89 % 0 mm
03:22 -7.9 °C -9 °C 34476.3 hPa Calm     88 % 0 mm
03:32 -7.9 °C -9 °C 34476.3 hPa Calm     88 % 0 mm
03:42 -7.9 °C -8.9 °C 34476.3 hPa Calm     89 % 0 mm
03:47 -7.9 °C -8.9 °C 34462.7 hPa Calm     89 % 0 mm
03:57 -7.9 °C -8.9 °C 34462.7 hPa Calm     89 % 0 mm
04:02 -7.9 °C -8.9 °C 34462.7 hPa Calm     89 % 0 mm
04:12 -7.9 °C -8.9 °C 34462.7 hPa Calm     89 % 0 mm
04:17 -7.9 °C -8.9 °C 34462.7 hPa Calm     89 % 0 mm
04:27 -7.9 °C -8.9 °C 34462.7 hPa Calm     89 % 0 mm
04:33 -8 °C -9 °C 34462.7 hPa Calm     89 % 0 mm
04:42 -8 °C -9 °C 34462.7 hPa Calm     89 % 0 mm
04:47 -8 °C -9 °C 34462.7 hPa Calm     89 % 0 mm
04:52 -8 °C -9 °C 34462.7 hPa Calm     89 % 0 mm
05:02 -8.1 °C -9.1 °C 34462.7 hPa Calm     90 % 0 mm
05:12 -8.1 °C -9.1 °C 34462.7 hPa Calm     90 % 0 mm
05:22 -8.2 °C -9.2 °C 34462.7 hPa Calm     89 % 0 mm
05:32 -8.2 °C -9.2 °C 34462.7 hPa Calm     90 % 0 mm
05:42 -8.3 °C -9.2 °C 34462.7 hPa Calm     90 % 0 mm
05:52 -8.4 °C -9.3 °C 34462.7 hPa Calm     90 % 0 mm
06:02 -8.4 °C -9.3 °C 34462.7 hPa Calm     91 % 0 mm
06:12 -8.5 °C -9.3 °C 34452.6 hPa Calm     91 % 0 mm
06:17 -8.6 °C -9.4 °C 34452.6 hPa Calm     91 % 0 mm
06:22 -8.6 °C -9.4 °C 34452.6 hPa Calm     91 % 0 mm
06:32 -8.7 °C -9.5 °C 34462.7 hPa Calm     91 % 0 mm
06:42 -8.7 °C -9.6 °C 34462.7 hPa Calm     91 % 0 mm
06:52 -8.8 °C -9.5 °C 34462.7 hPa Calm     92 % 0 mm
07:12 -8.7 °C -9.3 °C 34462.7 hPa Calm     93 % 0 mm
07:22 -8.6 °C -9.2 °C 34462.7 hPa Calm     94 % 0 mm
07:32 -8.4 °C -9 °C 34462.7 hPa Calm     94 % 0 mm
07:42 -8.2 °C -8.8 °C 34462.7 hPa Calm     94 % 0 mm
07:52 -8 °C -8.6 °C 34462.7 hPa Calm     94 % 0 mm
08:02 -7.8 °C -8.4 °C 34462.7 hPa Calm     93 % 0 mm
08:12 -7.6 °C -8.3 °C 34462.7 hPa Calm     92 % 0 mm
08:22 -7.1 °C -8.2 °C 34462.7 hPa Calm     89 % 0 mm
08:32 -6.6 °C -8 °C 34462.7 hPa Calm     85 % 0 mm
08:42 -6.2 °C -8.1 °C 34462.7 hPa Calm   2.6 km/h 81 % 0 mm
08:52 -6.1 °C -7.8 °C 34476.3 hPa Calm   5.1 km/h 82 % 0 mm
09:02 -5.3 °C -8.1 °C 34476.3 hPa Calm     74 % 0 mm
09:12 -4.6 °C -7.9 °C 34476.3 hPa NW 2.6 km/h 5.1 km/h 69 % 0 mm
09:22 -4.1 °C -7.7 °C 34476.3 hPa Calm   7.7 km/h 67 % 0 mm
09:32 -3.7 °C -7.6 °C 34476.3 hPa West 2.6 km/h 7.7 km/h 65 % 0 mm
09:42 -3.2 °C -7.3 °C 34462.7 hPa Calm   10.3 km/h 64 % 0 mm
09:52 -2.7 °C -7.3 °C 34476.3 hPa Calm   10.3 km/h 61 % 0 mm
10:02 -2.3 °C -7.4 °C 34462.7 hPa WSW 2.6 km/h 5.1 km/h 57 % 0 mm
10:12 -1.8 °C -7.2 °C 34462.7 hPa Calm   7.7 km/h 56 % 0 mm
10:17 -1.7 °C -7.7 °C 34462.7 hPa NW 2.6 km/h 10.3 km/h 52 % 0 mm
10:22 -1.5 °C -7.2 °C 34462.7 hPa West 2.6 km/h 10.3 km/h 54 % 0 mm
10:32 -1.1 °C -7.7 °C 34462.7 hPa NNW 2.6 km/h 15.6 km/h 49 % 0 mm
10:42 -0.9 °C -7.5 °C 34462.7 hPa Calm   12.9 km/h 49 % 0 mm
10:52 -0.7 °C -7.9 °C 34462.7 hPa WNW 10.3 km/h 10.3 km/h 46 % 0 mm
11:02 -0.8 °C -8.2 °C 34462.7 hPa Calm   18.2 km/h 45 % 0 mm
11:12 -0.6 °C -7.8 °C 34452.6 hPa West 2.6 km/h 20.8 km/h 46 % 0 mm
11:17 -0.3 °C -7.8 °C 34452.6 hPa NW 7.7 km/h 20.8 km/h 45 % 0 mm
11:22 -0.2 °C -8.1 °C 34452.6 hPa WNW 7.7 km/h 20.8 km/h 43 % 0 mm
11:32 -0.1 °C -7.9 °C 34452.6 hPa NW 5.1 km/h 12.9 km/h 43 % 0 mm
11:42 0.2 °C -7.7 °C 34452.6 hPa NNE 2.6 km/h 12.9 km/h 43 % 0 mm
11:52 0.4 °C -7.9 °C 34452.6 hPa NW 10.3 km/h 12.9 km/h 41 % 0 mm
12:02 0.5 °C -8.1 °C 34442.4 hPa WNW 2.6 km/h 15.6 km/h 40 % 0 mm
12:12 0.7 °C -7.7 °C 34442.4 hPa Calm   12.9 km/h 41 % 0 mm
12:17 0.7 °C -8.1 °C 34442.4 hPa SE 2.6 km/h 15.6 km/h 39 % 0 mm
12:22 0.7 °C -7.8 °C 34442.4 hPa North 10.3 km/h 15.6 km/h 40 % 0 mm
12:32 0.8 °C -9.5 °C 34442.4 hPa WNW 5.1 km/h 18.2 km/h 33 % 0 mm
12:42 0.7 °C -8.8 °C 34442.4 hPa NW 2.6 km/h 18.2 km/h 36 % 0 mm
12:47 1 °C -9.3 °C 34442.4 hPa NW 12.9 km/h 18.2 km/h 33 % 0 mm
12:52 0.9 °C -9.3 °C 34442.4 hPa NW 7.7 km/h 18.2 km/h 33 % 0 mm
13:02 1.4 °C -8.9 °C 34428.8 hPa NE 5.1 km/h 25.9 km/h 33 % 0 mm
13:07 1.4 °C -10.3 °C 34428.8 hPa Calm   15.6 km/h 28 % 0 mm
13:17 1.4 °C -9.4 °C 34428.8 hPa WSW 2.6 km/h 15.6 km/h 31 % 0 mm
13:22 1.5 °C -9.7 °C 34428.8 hPa NW 7.7 km/h 15.6 km/h 30 % 0 mm
13:32 1.8 °C -9.7 °C 34428.8 hPa Calm   15.6 km/h 29 % 0 mm
13:42 1.7 °C -10.4 °C 34428.8 hPa NNW 12.9 km/h 12.9 km/h 27 % 0 mm
13:52 1.7 °C -9 °C 34418.7 hPa Calm   18.2 km/h 32 % 0 mm
14:02 1.8 °C -9.4 °C 34418.7 hPa Calm   18.2 km/h 30 % 0 mm
14:12 2 °C -8.7 °C 34418.7 hPa Calm   18.2 km/h 32 % 0 mm
14:22 2.1 °C -9.5 °C 34418.7 hPa NW 5.1 km/h 10.3 km/h 29 % 0 mm
14:42 2.1 °C -9.4 °C 34405.1 hPa WNW 2.6 km/h 18.2 km/h 29 % 0 mm
14:47 2.1 °C -8.4 °C 34405.1 hPa Calm   12.9 km/h 33 % 0 mm
14:52 2.3 °C -9.6 °C 34405.1 hPa Calm   12.9 km/h 28 % 0 mm
14:57 2.3 °C -9.9 °C 34405.1 hPa Calm   12.9 km/h 27 % 0 mm
15:07 2.4 °C -9.2 °C 34405.1 hPa WSW 5.1 km/h 15.6 km/h 29 % 0 mm
15:12 2.5 °C -9.4 °C 34405.1 hPa West 7.7 km/h 12.9 km/h 28 % 0 mm
15:17 2.4 °C -9.8 °C 34405.1 hPa Calm   10.3 km/h 27 % 0 mm
15:22 2.4 °C -9.2 °C 34405.1 hPa NNW 5.1 km/h 20.8 km/h 29 % 0 mm
15:32 2.2 °C -9.1 °C 34395 hPa Calm   20.8 km/h 30 % 0 mm
15:37 2.3 °C -9.3 °C 34395 hPa NW 2.6 km/h 18.2 km/h 29 % 0 mm
15:42 2.5 °C -9.1 °C 34395 hPa Calm   18.2 km/h 29 % 0 mm
15:47 2.6 °C -9.4 °C 34395 hPa West 7.7 km/h 10.3 km/h 28 % 0 mm
15:52 2.4 °C -8.6 °C 34384.8 hPa Calm   10.3 km/h 31 % 0 mm
15:57 2.4 °C -9.8 °C 34384.8 hPa WNW 10.3 km/h 15.6 km/h 27 % 0 mm
16:02 2.2 °C -9.9 °C 34384.8 hPa NNW 5.1 km/h 20.8 km/h 27 % 0 mm
16:12 2.4 °C -8.9 °C 34384.8 hPa Calm   20.8 km/h 30 % 0 mm
16:17 2.5 °C -8.8 °C 34384.8 hPa Calm   15.6 km/h 30 % 0 mm
16:22 2.6 °C -9 °C 34384.8 hPa Calm   15.6 km/h 29 % 0 mm
16:27 2.7 °C -9.3 °C 34384.8 hPa Calm   10.3 km/h 28 % 0 mm
16:32 2.6 °C -9.1 °C 34384.8 hPa NW 5.1 km/h 23.3 km/h 29 % 0 mm
16:37 2.4 °C -9.4 °C 34384.8 hPa WSW 2.6 km/h 23.3 km/h 28 % 0 mm
16:42 2.4 °C -9.8 °C 34384.8 hPa NW 7.7 km/h 23.3 km/h 27 % 0 mm
16:47 2.3 °C -9.6 °C 34371.3 hPa NNW 10.3 km/h 15.6 km/h 28 % 0 mm
16:52 2.4 °C -9.5 °C 34371.3 hPa WNW 5.1 km/h 15.6 km/h 28 % 0 mm
16:57 2.6 °C -8.7 °C 34371.3 hPa Calm   12.9 km/h 30 % 0 mm
17:02 2.7 °C -9.9 °C 34371.3 hPa West 5.1 km/h 12.9 km/h 26 % 0 mm
17:07 2.7 °C -9.9 °C 34371.3 hPa WNW 2.6 km/h 12.9 km/h 26 % 0 mm
17:12 2.6 °C -10.3 °C 34371.3 hPa Calm   12.9 km/h 25 % 0 mm
17:17 2.6 °C -10 °C 34361.1 hPa Calm   15.6 km/h 26 % 0 mm
17:22 2.4 °C -8.9 °C 34361.1 hPa Calm   15.6 km/h 30 % 0 mm
17:32 2.6 °C -9.7 °C 34361.1 hPa West 2.6 km/h 12.9 km/h 27 % 0 mm
17:37 2.6 °C -9.6 °C 34361.1 hPa SSW 2.6 km/h 12.9 km/h 27 % 0 mm
17:42 2.6 °C -9 °C 34361.1 hPa Calm   12.9 km/h 29 % 0 mm
17:47 2.6 °C -9.4 °C 34361.1 hPa Calm   12.9 km/h 28 % 0 mm
17:52 2.4 °C -9.8 °C 34361.1 hPa Calm   12.9 km/h 27 % 0 mm
17:57 2.3 °C -9.9 °C 34361.1 hPa WNW 2.6 km/h 15.6 km/h 27 % 0 mm
18:02 2.3 °C -9.6 °C 34347.6 hPa NW 7.7 km/h 15.6 km/h 28 % 0 mm
18:07 2.3 °C -9.9 °C 34347.6 hPa NW 7.7 km/h 15.6 km/h 27 % 0 mm
18:12 2.2 °C -9.7 °C 34347.6 hPa WSW 2.6 km/h 15.6 km/h 28 % 0 mm
18:17 2.2 °C -10 °C 34347.6 hPa NW 5.1 km/h 15.6 km/h 27 % 0 mm
18:22 2.2 °C -9.7 °C 34347.6 hPa Calm   20.8 km/h 28 % 0 mm
18:32 2.2 °C -10 °C 34347.6 hPa NNW 5.1 km/h 20.8 km/h 27 % 0 mm
18:37 2.2 °C -9.1 °C 34347.6 hPa NNW 5.1 km/h 12.9 km/h 30 % 0 mm
18:42 2.1 °C -9.8 °C 34337.4 hPa NW 2.6 km/h 12.9 km/h 28 % 0 mm
18:52 1.9 °C -9.9 °C 34337.4 hPa Calm   18.2 km/h 28 % 0 mm
18:57 1.8 °C -9.7 °C 34337.4 hPa Calm   18.2 km/h 29 % 0 mm
19:02 1.6 °C -10.2 °C 34337.4 hPa WNW 5.1 km/h 15.6 km/h 28 % 0 mm
19:07 1.5 °C -9.9 °C 34337.4 hPa NNW 2.6 km/h 15.6 km/h 29 % 0 mm
19:12 1.3 °C -10.1 °C 34337.4 hPa NNW 2.6 km/h 15.6 km/h 29 % 0 mm
19:17 1.3 °C -10.2 °C 34337.4 hPa NW 5.1 km/h 15.6 km/h 29 % 0 mm
19:22 1.3 °C -10.4 °C 34337.4 hPa WNW 2.6 km/h 15.6 km/h 28 % 0 mm
19:27 1.2 °C -10.5 °C 34337.4 hPa NW 2.6 km/h 15.6 km/h 28 % 0 mm
19:32 1.2 °C -10.6 °C 34327.3 hPa NNW 2.6 km/h 15.6 km/h 28 % 0 mm
19:37 1.1 °C -10.3 °C 34327.3 hPa North 2.6 km/h 15.6 km/h 29 % 0 mm
19:42 1 °C -10.7 °C 34327.3 hPa NNW 5.1 km/h 15.6 km/h 28 % 0 mm
19:47 0.9 °C -10.7 °C 34327.3 hPa Calm   12.9 km/h 28 % 0 mm
19:52 0.8 °C -10.3 °C 34337.4 hPa NNW 2.6 km/h 12.9 km/h 30 % 0 mm
19:57 0.7 °C -10.4 °C 34337.4 hPa WNW 5.1 km/h 12.9 km/h 30 % 0 mm
20:02 0.6 °C -10.2 °C 34337.4 hPa NNW 7.7 km/h 10.3 km/h 31 % 0 mm
20:12 0.4 °C -9.3 °C 34327.3 hPa West 2.6 km/h 15.6 km/h 35 % 0 mm
20:17 0.2 °C -9.3 °C 34327.3 hPa Calm   15.6 km/h 36 % 0 mm
20:22 -0.1 °C -9.3 °C 34327.3 hPa Calm   10.3 km/h 37 % 0 mm
20:27 -0.4 °C -9.3 °C 34327.3 hPa Calm   7.7 km/h 38 % 0 mm
20:37 -1.1 °C -8.7 °C 34327.3 hPa Calm   5.1 km/h 44 % 0 mm
20:42 -1.4 °C -8.9 °C 34327.3 hPa Calm   2.6 km/h 44 % 0 mm
20:47 -1.6 °C -8.9 °C 34327.3 hPa Calm   2.6 km/h 45 % 0 mm
20:52 -1.8 °C -8.7 °C 34327.3 hPa Calm     47 % 0 mm
20:57 -2 °C -8.9 °C 34327.3 hPa Calm     47 % 0 mm
21:02 -2.1 °C -9 °C 34327.3 hPa Calm     47 % 0 mm
21:07 -2.3 °C -8.6 °C 34327.3 hPa Calm     50 % 0 mm
21:12 -2.4 °C -8.6 °C 34327.3 hPa Calm     51 % 0 mm
21:17 -2.6 °C -8.9 °C 34327.3 hPa Calm     50 % 0 mm
21:22 -2.7 °C -8.8 °C 34327.3 hPa Calm   2.6 km/h 51 % 0 mm
21:27 -2.9 °C -8.5 °C 34327.3 hPa Calm   2.6 km/h 54 % 0 mm
21:32 -3 °C -8.8 °C 34327.3 hPa Calm   2.6 km/h 53 % 0 mm
21:37 -3.1 °C -8.7 °C 34327.3 hPa Calm   2.6 km/h 54 % 0 mm
21:42 -3.2 °C -8.8 °C 34327.3 hPa Calm   2.6 km/h 54 % 0 mm
21:47 -3.3 °C -8.7 °C 34327.3 hPa Calm     55 % 0 mm
21:52 -3.4 °C -8.8 °C 34337.4 hPa Calm     55 % 0 mm
21:57 -3.6 °C -8.8 °C 34337.4 hPa Calm     56 % 0 mm
22:02 -3.7 °C -8.7 °C 34337.4 hPa Calm     57 % 0 mm
22:07 -3.8 °C -8.8 °C 34337.4 hPa Calm     57 % 0 mm
22:12 -3.7 °C -8.7 °C 34337.4 hPa Calm   5.1 km/h 58 % 0 mm
22:17 -3.9 °C -8.7 °C 34337.4 hPa Calm   5.1 km/h 59 % 0 mm
22:22 -3.9 °C -8.6 °C 34337.4 hPa Calm   5.1 km/h 60 % 0 mm
22:27 -4.1 °C -8.6 °C 34337.4 hPa Calm   2.6 km/h 61 % 0 mm
22:32 -4.2 °C -8.6 °C 34327.3 hPa Calm   2.6 km/h 61 % 0 mm
22:37 -4.3 °C -8.6 °C 34337.4 hPa Calm   2.6 km/h 62 % 0 mm
22:42 -4.3 °C -8.6 °C 34337.4 hPa Calm   2.6 km/h 62 % 0 mm
22:52 -4.4 °C -8.6 °C 34337.4 hPa Calm     63 % 0 mm
23:02 -4.7 °C -8.4 °C 34337.4 hPa Calm     66 % 0 mm
23:07 -4.9 °C -8.5 °C 34337.4 hPa Calm     67 % 0 mm
23:12 -5.1 °C -8.7 °C 34347.6 hPa Calm     67 % 0 mm
23:17 -5.2 °C -8.6 °C 34337.4 hPa Calm     68 % 0 mm
23:22 -5.3 °C -8.5 °C 34337.4 hPa Calm     70 % 0 mm
23:27 -5.5 °C -8.6 °C 34347.6 hPa Calm     71 % 0 mm
23:32 -5.6 °C -8.7 °C 34347.6 hPa Calm     71 % 0 mm
23:42 -5.8 °C -8.5 °C 34347.6 hPa Calm     74 % 0 mm
23:47 -5.9 °C -8.6 °C 34347.6 hPa Calm     74 % 0 mm
23:53 -5.9 °C -8.5 °C 34347.6 hPa Calm     75 % 0 mm
Meteo18
Compliments of Weather Underground - 4 mb

Script developed by  Jim McMurry - jmcmurry@mwt.net Adapted for the template by  Wim van der Kuil - Leuven-Template.eu

You find our weather info also at:

European Weather Network

Weather Underground

Equipment we use:

Weather-station
Davis Vue

Weather-program
Meteobridge

Weather-server
Raspberry PI 2 B+

Provider
1 and 1

Davis Vue

Meteobridge

Raspberry PI 2 B+

1 and 1